createdAt,value
2022-11-05T07:43:03.323Z,2.92
2022-11-05T07:45:31.232Z,3.40
2022-11-05T07:48:03.608Z,2.83
2022-11-05T07:50:35.420Z,3.53
2022-11-05T07:53:12.220Z,5.63
2022-11-05T07:55:41.587Z,2.30
2022-11-05T07:58:09.038Z,2.88
2022-11-05T08:00:36.402Z,2.67
2022-11-05T08:03:09.153Z,2.90
2022-11-05T08:05:39.290Z,3.03
2022-11-05T08:08:11.177Z,2.50
2022-11-05T08:10:38.882Z,2.60
2022-11-05T08:13:06.636Z,2.92
2022-11-05T08:15:33.985Z,2.63
2022-11-05T08:18:03.206Z,2.75
2022-11-05T08:20:30.691Z,2.58
2022-11-05T08:22:58.046Z,3.33
2022-11-05T08:25:25.514Z,4.20
2022-11-05T08:28:11.990Z,3.13
2022-11-05T08:30:39.027Z,4.68
2022-11-05T08:33:12.044Z,3.38
2022-11-05T08:35:40.146Z,2.97
2022-11-05T08:38:13.586Z,2.65
2022-11-05T08:40:41.235Z,3.22
2022-11-05T08:43:10.791Z,2.78
2022-11-05T08:45:38.717Z,3.10
2022-11-05T08:48:14.994Z,2.78
2022-11-05T08:50:44.629Z,2.70
2022-11-05T08:53:12.529Z,2.65
2022-11-05T08:55:39.566Z,2.33
2022-11-05T08:58:10.659Z,1.70
2022-11-05T09:00:38.455Z,2.53
2022-11-05T09:03:07.076Z,1.98
2022-11-05T09:05:37.887Z,1.98
2022-11-05T09:08:09.922Z,2.13
2022-11-05T09:10:37.485Z,2.28
2022-11-05T09:13:04.557Z,1.98
2022-11-05T09:15:32.164Z,1.40
2022-11-05T09:17:59.655Z,1.77
2022-11-05T09:20:26.510Z,2.83
2022-11-05T09:22:53.396Z,2.50
2022-11-05T09:25:20.480Z,2.58
2022-11-05T09:27:47.359Z,2.25
2022-11-05T09:30:14.462Z,2.00
2022-11-05T09:32:42.806Z,2.53
2022-11-05T09:35:09.917Z,2.58
2022-11-05T09:37:39.654Z,1.92
2022-11-05T09:40:07.218Z,1.67
2022-11-05T09:42:46.954Z,1.50
2022-11-05T09:45:19.807Z,1.60
2022-11-05T09:48:05.082Z,2.15
2022-11-05T09:50:44.187Z,1.70
2022-11-05T09:53:17.518Z,1.73
2022-11-05T09:55:49.343Z,2.00
2022-11-05T09:58:40.937Z,2.30
2022-11-05T10:01:17.371Z,1.70
2022-11-05T10:03:48.150Z,1.75
2022-11-05T10:06:23.628Z,1.80
2022-11-05T10:09:17.992Z,4.13
2022-11-05T10:11:49.918Z,1.95
2022-11-05T10:14:19.685Z,1.70
2022-11-05T10:16:53.187Z,2.30
2022-11-05T10:19:24.672Z,1.80
2022-11-05T10:22:10.202Z,2.55
2022-11-05T10:24:38.582Z,2.70
2022-11-05T10:27:06.212Z,2.90
2022-11-05T10:29:35.298Z,2.72
2022-11-05T10:32:05.834Z,2.83
2022-11-05T10:34:36.798Z,2.15
2022-11-05T10:37:04.379Z,2.13
2022-11-05T10:39:33.868Z,2.00
2022-11-05T10:42:00.663Z,3.00
2022-11-05T10:44:58.371Z,2.53
2022-11-05T10:47:44.643Z,5.30
2022-11-05T10:50:17.056Z,3.33
2022-11-05T10:52:56.257Z,2.55
2022-11-05T10:55:25.372Z,2.85
2022-11-05T10:57:52.779Z,2.53
2022-11-05T11:00:21.932Z,2.55
2022-11-05T11:02:53.417Z,2.58
2022-11-05T11:05:25.553Z,2.60
2022-11-05T11:07:59.809Z,2.15
2022-11-05T11:10:27.525Z,1.90
2022-11-05T11:12:56.319Z,1.88
2022-11-05T11:15:29.414Z,2.30
2022-11-05T11:17:56.984Z,2.42
2022-11-05T11:20:27.493Z,1.88
2022-11-05T11:23:13.117Z,2.20
2022-11-05T11:26:00.643Z,2.08
2022-11-05T11:28:40.387Z,1.95
2022-11-05T11:31:16.445Z,2.00
2022-11-05T11:33:47.734Z,2.80
2022-11-05T11:36:24.303Z,2.95
2022-11-05T11:38:51.925Z,1.70
2022-11-05T11:41:35.945Z,1.80
2022-11-05T11:44:08.546Z,1.63
2022-11-05T11:49:03.129Z,2.40
2022-11-05T11:51:34.250Z,2.25
2022-11-05T11:54:02.309Z,1.67
2022-11-05T11:56:30.421Z,2.47
2022-11-05T11:59:04.248Z,1.73
2022-11-05T12:02:01.084Z,1.85
2022-11-05T12:05:01.883Z,1.52
2022-11-05T12:07:36.633Z,1.95
2022-11-05T12:10:17.681Z,1.55
2022-11-05T12:13:04.671Z,2.10
2022-11-05T12:15:43.704Z,1.80
2022-11-05T12:18:39.251Z,2.25
2022-11-05T12:21:52.534Z,2.33
2022-11-05T12:24:38.636Z,2.65
2022-11-05T12:27:32.924Z,2.80
2022-11-05T12:30:14.054Z,2.10
2022-11-05T12:32:59.027Z,2.00
2022-11-05T12:36:02.522Z,3.38
2022-11-05T12:38:57.093Z,2.22
2022-11-05T12:41:30.227Z,2.28
2022-11-05T12:44:16.376Z,2.67
2022-11-05T12:47:07.541Z,2.38
2022-11-05T12:50:00.015Z,2.03
2022-11-05T12:53:00.028Z,2.17
2022-11-05T12:55:33.629Z,2.42
2022-11-05T12:58:11.655Z,1.88
2022-11-05T13:00:42.166Z,2.00
2022-11-05T13:03:46.720Z,2.55
2022-11-05T13:06:23.189Z,2.53
2022-11-05T13:09:21.162Z,3.22
2022-11-05T13:11:57.273Z,2.10
2022-11-05T13:14:48.378Z,3.28
2022-11-05T13:17:22.556Z,1.88
2022-11-05T13:20:17.311Z,1.88
2022-11-05T13:22:55.321Z,2.53
2022-11-05T13:25:28.160Z,2.75
2022-11-05T13:28:27.184Z,2.67
2022-11-05T13:31:01.444Z,2.72
2022-11-05T13:33:33.393Z,2.35
2022-11-05T13:36:42.534Z,3.13
2022-11-05T13:39:30.253Z,3.15
2022-11-05T13:42:21.499Z,2.22
2022-11-05T13:45:00.195Z,1.88
2022-11-05T13:47:42.217Z,2.60
2022-11-05T13:50:30.551Z,2.33
2022-11-05T13:53:21.792Z,2.50
2022-11-05T13:56:18.066Z,2.63
2022-11-05T13:59:11.423Z,2.92
2022-11-05T14:01:49.999Z,3.22
2022-11-05T14:04:27.522Z,3.92
2022-11-05T14:07:04.699Z,4.22
2022-11-05T14:09:35.454Z,3.78
2022-11-05T14:12:04.587Z,4.78
2022-11-05T14:14:43.094Z,3.78
2022-11-05T14:17:09.875Z,4.80
2022-11-05T14:19:51.912Z,4.93
2022-11-05T14:22:33.773Z,5.95
2022-11-05T14:25:22.534Z,5.32
2022-11-05T14:27:52.058Z,5.50
2022-11-05T14:30:42.533Z,5.78
2022-11-05T14:33:26.629Z,5.57
2022-11-05T14:36:14.491Z,6.40
2022-11-05T14:38:51.059Z,5.68
2022-11-05T14:41:19.154Z,6.05
2022-11-05T14:44:01.626Z,6.47
2022-11-05T14:46:46.890Z,7.32
2022-11-05T14:49:23.306Z,6.68
2022-11-05T14:51:52.575Z,7.25
2022-11-05T14:54:34.439Z,7.50
2022-11-05T14:57:02.571Z,7.13
2022-11-05T14:59:31.463Z,8.55
2022-11-05T15:02:04.271Z,8.05
2022-11-05T15:04:42.598Z,9.00
2022-11-05T15:07:09.317Z,8.80
2022-11-05T15:09:44.982Z,9.45
2022-11-05T15:12:30.238Z,10.40
2022-11-05T15:15:21.310Z,10.63
2022-11-05T15:18:06.065Z,10.15
2022-11-05T15:20:41.062Z,10.38
2022-11-05T15:23:13.938Z,9.55
2022-11-05T15:26:02.738Z,11.15
2022-11-05T15:28:48.008Z,9.90
2022-11-05T15:31:17.537Z,9.90
2022-11-05T15:33:50.342Z,9.18
2022-11-05T15:36:25.137Z,10.20
2022-11-05T15:39:15.513Z,10.38
2022-11-05T15:41:39.186Z,10.43
2022-11-05T15:44:05.961Z,11.30
2022-11-05T15:46:32.926Z,11.75
2022-11-05T15:49:06.589Z,11.02
2022-11-05T15:51:35.541Z,8.43
2022-11-05T15:56:57.982Z,8.73
2022-11-05T15:59:26.915Z,8.10
2022-11-05T16:02:02.037Z,7.70
2022-11-05T16:04:32.105Z,7.88
2022-11-05T16:07:06.621Z,6.18
2022-11-05T16:09:36.505Z,6.95
2022-11-05T16:12:18.601Z,8.55
2022-11-05T16:14:57.610Z,8.90
2022-11-05T16:17:31.453Z,8.77
2022-11-05T16:19:58.345Z,8.93
2022-11-05T16:22:25.891Z,10.20
2022-11-05T16:24:52.681Z,9.10
2022-11-05T16:27:22.901Z,9.32
2022-11-05T16:29:55.990Z,12.07
2022-11-05T16:32:31.217Z,9.85
2022-11-05T16:35:04.689Z,9.23
2022-11-05T16:37:38.113Z,11.23
2022-11-05T16:40:17.065Z,9.02
2022-11-05T16:42:48.214Z,8.32
2022-11-05T16:45:16.837Z,8.50
2022-11-05T16:47:44.937Z,9.68
2022-11-05T16:50:25.099Z,10.20
2022-11-05T16:52:52.234Z,9.07
2022-11-05T16:55:19.462Z,8.35
2022-11-05T16:57:51.109Z,9.15
2022-11-05T17:00:19.956Z,8.73
2022-11-05T17:02:47.315Z,9.65
2022-11-05T17:05:32.285Z,8.88
2022-11-05T17:08:01.154Z,9.00
2022-11-05T17:10:27.997Z,9.40
2022-11-05T17:12:55.371Z,9.73
2022-11-05T17:15:35.451Z,9.57
2022-11-05T17:18:06.035Z,9.38
2022-11-05T17:20:41.528Z,9.90
2022-11-05T17:23:29.897Z,8.75
2022-11-05T17:26:01.942Z,10.05
2022-11-05T17:28:29.449Z,9.63
2022-11-05T17:30:59.673Z,9.98
2022-11-05T17:33:26.801Z,10.75
2022-11-05T17:38:39.354Z,11.50
2022-11-05T17:41:13.885Z,10.50
2022-11-05T17:43:41.289Z,11.73
2022-11-05T17:46:16.001Z,11.93
2022-11-05T17:48:43.117Z,11.43
2022-11-05T17:51:11.897Z,9.35
2022-11-05T17:53:38.894Z,11.38
2022-11-05T17:56:13.102Z,9.82
2022-11-05T17:58:40.879Z,10.07
2022-11-05T18:01:09.114Z,9.90
2022-11-05T18:03:36.082Z,10.50
2022-11-05T18:06:06.730Z,10.98
2022-11-05T18:08:33.882Z,11.57
2022-11-05T18:11:00.620Z,11.60
2022-11-05T18:13:27.507Z,12.27
2022-11-05T18:15:55.085Z,12.82
2022-11-05T18:18:22.139Z,11.70
2022-11-05T18:20:49.104Z,12.10
2022-11-05T18:23:15.974Z,13.48
2022-11-05T18:25:43.344Z,10.60
2022-11-05T18:28:10.438Z,10.65
2022-11-05T18:30:38.879Z,11.32
2022-11-05T18:33:05.801Z,10.98
2022-11-05T18:35:32.586Z,10.15
2022-11-05T18:38:01.554Z,11.20
2022-11-05T18:40:28.901Z,10.90
2022-11-05T18:42:55.742Z,10.43
2022-11-05T18:45:28.414Z,11.63
2022-11-05T18:48:00.234Z,11.27
2022-11-05T18:50:27.895Z,12.15
2022-11-05T18:52:54.752Z,10.32
2022-11-05T18:55:21.872Z,10.38
2022-11-05T18:57:48.861Z,10.65
2022-11-05T19:00:16.483Z,9.88
2022-11-05T19:02:45.393Z,11.65
2022-11-05T19:05:28.548Z,11.48
2022-11-05T19:07:56.346Z,10.80
2022-11-05T19:10:23.163Z,11.07
2022-11-05T19:12:53.696Z,12.25
2022-11-05T19:15:20.491Z,10.88
2022-11-05T19:17:47.349Z,11.13
2022-11-05T19:20:14.256Z,9.98
2022-11-05T19:22:41.022Z,9.98
2022-11-05T19:25:08.248Z,10.75
2022-11-05T19:27:35.951Z,11.25
2022-11-05T19:30:03.898Z,9.63
2022-11-05T19:32:30.747Z,10.68
2022-11-05T19:34:57.583Z,12.23
2022-11-05T19:37:24.410Z,11.32
2022-11-05T19:39:52.109Z,10.27
2022-11-05T19:42:18.984Z,10.88
2022-11-05T19:44:45.746Z,11.55
2022-11-05T19:47:12.589Z,10.00
2022-11-05T19:49:39.380Z,11.40
2022-11-05T19:52:06.737Z,11.15
2022-11-05T19:54:35.510Z,11.35
2022-11-05T19:57:02.320Z,12.15
2022-11-05T19:59:29.192Z,11.95
2022-11-05T20:01:56.114Z,10.60
2022-11-05T20:04:26.073Z,10.20
2022-11-05T20:06:52.940Z,11.15
2022-11-05T20:09:22.131Z,10.60
2022-11-05T20:11:56.702Z,10.55
2022-11-05T20:14:25.688Z,10.23
2022-11-05T20:16:52.902Z,10.35
2022-11-05T20:19:21.176Z,11.93
2022-11-05T20:21:48.539Z,11.02
2022-11-05T20:24:23.623Z,11.88
2022-11-05T20:26:53.794Z,10.57
2022-11-05T20:29:20.987Z,10.00
2022-11-05T20:31:50.142Z,9.30
2022-11-05T20:34:16.997Z,10.52
2022-11-05T20:36:43.831Z,12.98
2022-11-05T20:39:11.995Z,12.27
2022-11-05T20:41:38.910Z,10.50
2022-11-05T20:44:05.915Z,10.07
2022-11-05T20:46:33.929Z,10.13
2022-11-05T20:49:00.766Z,10.13
2022-11-05T20:51:27.533Z,10.55
2022-11-05T20:53:59.545Z,10.43
2022-11-05T20:56:31.808Z,10.30
2022-11-05T20:58:59.785Z,10.20
2022-11-05T21:01:29.270Z,11.23
2022-11-05T21:03:56.754Z,10.77
2022-11-05T21:06:26.681Z,10.50
2022-11-05T21:08:53.949Z,9.82
2022-11-05T21:11:21.013Z,9.90
2022-11-05T21:13:50.876Z,10.60
2022-11-05T21:16:19.110Z,10.95
2022-11-05T21:18:46.333Z,10.80
2022-11-05T21:21:18.806Z,14.73
2022-11-05T21:23:45.997Z,10.38
2022-11-05T21:26:14.390Z,9.98
2022-11-05T21:28:41.603Z,12.20
2022-11-05T21:31:09.611Z,10.20
2022-11-05T21:33:36.942Z,9.73
2022-11-05T21:36:11.532Z,10.50
2022-11-05T21:38:39.235Z,10.15
2022-11-05T21:41:08.059Z,8.73
2022-11-05T21:43:34.932Z,9.73
2022-11-05T21:46:03.457Z,9.00
2022-11-05T21:48:31.149Z,8.40
2022-11-05T21:51:16.561Z,8.68
2022-11-05T21:54:02.008Z,9.05
2022-11-05T21:56:47.514Z,7.55
2022-11-05T21:59:39.070Z,7.68
2022-11-05T22:02:07.496Z,5.95
2022-11-05T22:04:37.241Z,5.93
2022-11-05T22:07:05.016Z,6.25
2022-11-05T22:09:31.934Z,6.18
2022-11-05T22:11:59.582Z,7.10
